createdAt,value
2019-05-30T00:00:16.837Z,94292.63
2019-05-30T00:02:37.765Z,94299.04
2019-05-30T00:05:06.634Z,94290.59
2019-05-30T00:07:34.969Z,94293.16
2019-05-30T00:10:05.206Z,94291.08
2019-05-30T00:12:33.885Z,94288.95
2019-05-30T00:15:04.967Z,94289.38
2019-05-30T00:17:32.073Z,94292.83
2019-05-30T00:20:03.300Z,94292.83
2019-05-30T00:22:32.313Z,94286.45
2019-05-30T00:25:00.639Z,94297.51
2019-05-30T00:27:29.453Z,94293.33
2019-05-30T00:29:59.234Z,94297.14
2019-05-30T00:32:27.590Z,94296.35
2019-05-30T00:34:55.846Z,94295.95
2019-05-30T00:37:23.868Z,94297.69
2019-05-30T00:39:51.948Z,94292.14
2019-05-30T00:42:20.245Z,94292.08
2019-05-30T00:44:48.913Z,94295.84
2019-05-30T00:47:16.766Z,94294.60
2019-05-30T00:49:44.647Z,94298.46
2019-05-30T00:52:12.898Z,94297.23
2019-05-30T00:54:41.526Z,94293.86
2019-05-30T00:57:09.858Z,94295.18
2019-05-30T00:59:38.413Z,94297.34
2019-05-30T01:02:06.974Z,94292.25
2019-05-30T01:04:35.482Z,94298.17
2019-05-30T01:07:05.211Z,94293.89
2019-05-30T01:09:33.450Z,94294.67
2019-05-30T01:12:01.488Z,94293.72
2019-05-30T01:14:30.160Z,94290.37
2019-05-30T01:16:59.009Z,94293.48
2019-05-30T01:19:27.768Z,94296.05
2019-05-30T01:21:57.047Z,94299.53
2019-05-30T01:24:25.753Z,94297.88
2019-05-30T01:26:53.570Z,94289.80
2019-05-30T01:29:21.466Z,94291.55
2019-05-30T01:31:50.093Z,94293.27
2019-05-30T01:34:18.661Z,94296.68
2019-05-30T01:36:46.586Z,94294.17
2019-05-30T01:39:15.196Z,94302.23
2019-05-30T01:41:43.134Z,94297.20
2019-05-30T01:44:11.359Z,94287.44
2019-05-30T01:46:40.969Z,94292.98
2019-05-30T01:49:09.320Z,94287.84
2019-05-30T01:51:37.613Z,94285.25
2019-05-30T01:54:04.901Z,94287.04
2019-05-30T01:56:33.578Z,94283.71
2019-05-30T01:59:02.675Z,94283.77
2019-05-30T02:01:31.581Z,94282.52
2019-05-30T02:04:01.035Z,94276.59
2019-05-30T02:06:30.356Z,94277.02
2019-05-30T02:08:59.222Z,94277.86
2019-05-30T02:11:27.259Z,94282.12
2019-05-30T02:13:55.360Z,94277.92
2019-05-30T02:16:23.629Z,94281.72
2019-05-30T02:18:51.948Z,94285.55
2019-05-30T02:21:19.792Z,94285.55
2019-05-30T02:23:48.498Z,94282.97
2019-05-30T02:26:17.005Z,94284.20
2019-05-30T02:28:45.341Z,94285.86
2019-05-30T02:31:13.255Z,94283.33
2019-05-30T02:33:41.841Z,94287.56
2019-05-30T02:36:12.391Z,94284.64
2019-05-30T02:38:40.711Z,94282.94
2019-05-30T02:41:09.982Z,94283.80
2019-05-30T02:43:39.444Z,94285.98
2019-05-30T02:46:08.538Z,94290.69
2019-05-30T02:48:57.301Z,94297.05
2019-05-30T02:51:10.704Z,94294.08
2019-05-30T02:53:38.699Z,94297.48
2019-05-30T02:56:10.219Z,94294.53
2019-05-30T02:58:39.065Z,94291.99
2019-05-30T03:01:09.211Z,94292.85
2019-05-30T03:03:37.793Z,94297.08
2019-05-30T03:06:08.602Z,94294.11
2019-05-30T03:08:36.851Z,94289.86
2019-05-30T03:11:09.367Z,94295.80
2019-05-30T03:13:35.706Z,94298.77
2019-05-30T03:16:04.576Z,94300.02
2019-05-30T03:18:34.506Z,94303.41
2019-05-30T03:21:03.281Z,94302.15
2019-05-30T03:23:34.175Z,94297.49
2019-05-30T03:26:04.613Z,94295.81
2019-05-30T03:28:32.391Z,94310.19
2019-05-30T03:31:04.404Z,94309.78
2019-05-30T03:33:40.486Z,94309.37
2019-05-30T03:36:09.215Z,94315.30
2019-05-30T03:38:33.798Z,94318.66
2019-05-30T03:41:02.162Z,94310.61
2019-05-30T03:43:30.660Z,94316.95
2019-05-30T03:45:59.198Z,94314.44
2019-05-30T03:48:28.350Z,94322.05
2019-05-30T03:50:58.401Z,94325.43
2019-05-30T03:53:27.148Z,94330.06
2019-05-30T03:56:01.806Z,94328.79
2019-05-30T03:59:00.908Z,94331.36
2019-05-30T04:01:36.529Z,94330.08
2019-05-30T04:04:14.501Z,94330.94
2019-05-30T04:06:46.070Z,94334.33
2019-05-30T04:09:21.934Z,94336.86
2019-05-30T04:12:20.127Z,94330.09
2019-05-30T04:14:50.892Z,94332.20
2019-05-30T04:17:20.038Z,94335.58
2019-05-30T04:19:48.367Z,94333.45
2019-05-30T04:22:15.664Z,94332.20
2019-05-30T04:24:44.192Z,94334.31
2019-05-30T04:27:13.852Z,94333.47
2019-05-30T04:29:42.222Z,94340.67
2019-05-30T04:32:12.396Z,94343.18
2019-05-30T04:34:40.112Z,94345.30
2019-05-30T04:37:08.428Z,94346.57
2019-05-30T04:39:36.605Z,94357.11
2019-05-30T04:42:06.127Z,94349.52
2019-05-30T04:44:34.858Z,94355.85
2019-05-30T04:47:03.403Z,94357.54
2019-05-30T04:49:31.638Z,94355.86
2019-05-30T04:51:59.051Z,94355.86
2019-05-30T04:54:27.764Z,94360.09
2019-05-30T04:56:56.520Z,94355.84
2019-05-30T04:59:26.971Z,94359.64
2019-05-30T05:01:55.228Z,94356.21
2019-05-30T05:04:23.941Z,94362.09
2019-05-30T05:06:52.598Z,94363.38
2019-05-30T05:09:22.377Z,94362.50
2019-05-30T05:11:51.155Z,94359.94
2019-05-30T05:14:20.437Z,94359.46
2019-05-30T05:16:49.159Z,94360.63
2019-05-30T05:19:19.337Z,94360.59
2019-05-30T05:21:48.485Z,94365.21
2019-05-30T05:24:17.323Z,94367.62
2019-05-30T05:26:45.989Z,94370.50
2019-05-30T05:29:14.052Z,94369.12
2019-05-30T05:31:42.399Z,94368.20
2019-05-30T05:34:10.963Z,94375.69
2019-05-30T05:36:39.199Z,94376.41
2019-05-30T05:39:07.604Z,94366.48
2019-05-30T05:41:37.177Z,94368.86
2019-05-30T05:44:05.144Z,94368.51
2019-05-30T05:46:33.764Z,94364.80
2019-05-30T05:49:04.290Z,94371.76
2019-05-30T05:51:32.464Z,94377.18
2019-05-30T05:54:01.246Z,94374.34
2019-05-30T05:56:30.031Z,94374.27
2019-05-30T05:58:58.651Z,94376.60
2019-05-30T06:01:26.629Z,94379.42
2019-05-30T06:03:55.062Z,94380.02
2019-05-30T06:06:23.658Z,94380.98
2019-05-30T06:08:51.861Z,94378.95
2019-05-30T06:11:20.537Z,94387.75
2019-05-30T06:13:49.357Z,94380.32
2019-05-30T06:16:17.825Z,94381.23
2019-05-30T06:18:46.218Z,94386.52
2019-05-30T06:21:14.821Z,94388.45
2019-05-30T06:23:45.560Z,94388.33
2019-05-30T06:26:12.658Z,94389.70
2019-05-30T06:28:41.205Z,94387.17
2019-05-30T06:31:09.779Z,94394.21
2019-05-30T06:33:38.466Z,94385.97
2019-05-30T06:36:06.955Z,94383.47
2019-05-30T06:38:34.760Z,94385.94
2019-05-30T06:41:03.265Z,94383.99
2019-05-30T06:43:31.691Z,94386.39
2019-05-30T06:46:00.381Z,94381.63
2019-05-30T06:48:29.089Z,94386.55
2019-05-30T06:50:57.775Z,94382.43
2019-05-30T06:53:27.150Z,94377.23
2019-05-30T06:55:55.857Z,94377.80
2019-05-30T06:58:41.540Z,94377.81
2019-05-30T07:00:54.201Z,94381.20
2019-05-30T07:03:22.228Z,94382.52
2019-05-30T07:05:50.559Z,94386.99
2019-05-30T07:08:19.366Z,94384.59
2019-05-30T07:10:48.024Z,94383.52
2019-05-30T07:13:16.198Z,94392.10
2019-05-30T07:15:44.383Z,94387.59
2019-05-30T07:18:13.179Z,94386.36
2019-05-30T07:20:41.053Z,94385.91
2019-05-30T07:23:09.693Z,94384.04
2019-05-30T07:25:37.817Z,94390.06
2019-05-30T07:28:06.431Z,94390.61
2019-05-30T07:30:35.094Z,94390.08
2019-05-30T07:33:03.467Z,94390.57
2019-05-30T07:35:32.074Z,94397.36
2019-05-30T07:38:01.373Z,94397.67
2019-05-30T07:40:28.915Z,94399.80
2019-05-30T07:42:57.015Z,94402.41
2019-05-30T07:45:25.076Z,94398.89
2019-05-30T07:47:54.003Z,94406.22
2019-05-30T07:50:23.604Z,94403.38
2019-05-30T07:52:52.303Z,94405.42
2019-05-30T07:55:21.206Z,94408.94
2019-05-30T07:57:49.465Z,94411.14
2019-05-30T08:00:18.051Z,94405.78
2019-05-30T08:02:46.784Z,94408.82
2019-05-30T08:05:24.222Z,94414.70
2019-05-30T08:07:46.335Z,94411.27
2019-05-30T08:10:15.381Z,94408.47
2019-05-30T08:12:43.735Z,94420.05
2019-05-30T08:15:14.104Z,94408.39
2019-05-30T08:17:44.274Z,94414.73
2019-05-30T08:20:11.805Z,94414.11
2019-05-30T08:22:41.714Z,94410.73
2019-05-30T08:25:10.122Z,94414.17
2019-05-30T08:27:38.741Z,94413.31
2019-05-30T08:30:07.150Z,94414.34
2019-05-30T08:32:36.958Z,94413.31
2019-05-30T08:35:05.929Z,94416.44
2019-05-30T08:37:35.150Z,94405.92
2019-05-30T08:40:04.085Z,94403.80
2019-05-30T08:42:33.263Z,94406.14
2019-05-30T08:45:01.771Z,94399.01
2019-05-30T08:47:31.777Z,94405.23
2019-05-30T08:50:00.078Z,94402.41
2019-05-30T08:52:28.462Z,94398.58
2019-05-30T08:54:57.008Z,94396.72
2019-05-30T08:57:25.707Z,94399.78
2019-05-30T08:59:53.809Z,94391.81
2019-05-30T09:02:22.341Z,94398.55
2019-05-30T09:04:50.651Z,94397.75
2019-05-30T09:07:19.075Z,94394.34
2019-05-30T09:09:47.252Z,94401.92
2019-05-30T09:12:15.870Z,94396.98
2019-05-30T09:14:45.331Z,94391.61
2019-05-30T09:17:14.157Z,94391.58
2019-05-30T09:19:43.186Z,94396.47
2019-05-30T09:22:11.592Z,94391.03
2019-05-30T09:24:40.895Z,94389.61
2019-05-30T09:27:11.396Z,94385.98
2019-05-30T09:29:41.032Z,94382.50
2019-05-30T09:32:10.105Z,94384.34
2019-05-30T09:34:41.458Z,94379.28
2019-05-30T09:37:09.827Z,94380.42
2019-05-30T09:39:39.125Z,94386.27
2019-05-30T09:42:07.947Z,94381.91
2019-05-30T09:44:36.575Z,94386.21
2019-05-30T09:47:05.223Z,94383.84
2019-05-30T09:49:33.276Z,94378.68
2019-05-30T09:52:02.793Z,94381.05
2019-05-30T09:54:31.385Z,94386.69
2019-05-30T09:57:00.173Z,94383.80
2019-05-30T09:59:28.892Z,94386.44
2019-05-30T10:01:57.315Z,94385.01
2019-05-30T10:04:25.259Z,94381.70
2019-05-30T10:06:53.210Z,94382.15
2019-05-30T10:09:22.609Z,94384.17
2019-05-30T10:11:51.377Z,94382.52
2019-05-30T10:14:20.164Z,94384.36
2019-05-30T10:16:53.394Z,94382.02
2019-05-30T10:19:19.104Z,94382.84
2019-05-30T10:21:48.910Z,94375.91
2019-05-30T10:24:17.568Z,94377.63
2019-05-30T10:26:47.107Z,94374.13
2019-05-30T10:29:15.144Z,94373.48
2019-05-30T10:31:45.053Z,94375.67
2019-05-30T10:34:16.262Z,94375.67
2019-05-30T10:36:47.243Z,94363.39
2019-05-30T10:39:15.025Z,94372.08
2019-05-30T10:41:44.583Z,94359.02
2019-05-30T10:44:14.101Z,94359.26
2019-05-30T10:46:42.188Z,94364.19
2019-05-30T10:49:10.770Z,94360.79
2019-05-30T10:51:39.151Z,94356.19
2019-05-30T10:54:07.354Z,94360.71
2019-05-30T10:56:36.016Z,94357.16
2019-05-30T10:59:04.309Z,94357.04
2019-05-30T11:01:32.818Z,94358.75
2019-05-30T11:04:00.677Z,94356.74
2019-05-30T11:07:10.578Z,94359.23
2019-05-30T11:09:34.719Z,94356.91
2019-05-30T11:12:02.640Z,94349.48
2019-05-30T11:14:30.832Z,94358.50
2019-05-30T11:16:59.240Z,94357.73
2019-05-30T11:19:28.635Z,94359.63
2019-05-30T11:21:56.461Z,94348.09
2019-05-30T11:24:25.004Z,94358.09
2019-05-30T11:26:54.220Z,94351.99
2019-05-30T11:29:23.867Z,94341.90
2019-05-30T11:31:52.888Z,94342.41
2019-05-30T11:34:20.886Z,94331.50
2019-05-30T11:36:49.500Z,94335.45
2019-05-30T11:39:17.757Z,94331.67
2019-05-30T11:41:46.152Z,94337.45
2019-05-30T11:44:14.487Z,94337.09
2019-05-30T11:46:43.327Z,94332.45
2019-05-30T11:49:11.895Z,94332.89
2019-05-30T11:51:40.630Z,94336.86
2019-05-30T11:54:09.115Z,94335.40
2019-05-30T11:56:37.006Z,94329.05
2019-05-30T11:59:04.932Z,94328.06
2019-05-30T12:01:33.536Z,94327.14
2019-05-30T12:04:01.917Z,94330.58
2019-05-30T12:06:30.196Z,94328.24
2019-05-30T12:08:58.990Z,94325.35
2019-05-30T12:11:27.274Z,94324.70
2019-05-30T12:13:55.787Z,94321.13
2019-05-30T12:16:24.445Z,94325.53
2019-05-30T12:18:55.765Z,94319.80
2019-05-30T12:21:24.412Z,94318.30
2019-05-30T12:23:54.287Z,94314.34
2019-05-30T12:26:22.037Z,94313.88
2019-05-30T12:28:50.350Z,94318.55
2019-05-30T12:31:18.564Z,94317.38
2019-05-30T12:33:46.843Z,94316.09
2019-05-30T12:36:14.768Z,94318.03
2019-05-30T12:38:43.359Z,94319.33
2019-05-30T12:41:11.724Z,94319.81
2019-05-30T12:43:40.276Z,94321.31
2019-05-30T12:46:08.132Z,94321.86
2019-05-30T12:48:36.414Z,94324.73
2019-05-30T12:51:05.565Z,94320.33
2019-05-30T12:53:33.882Z,94316.43
2019-05-30T12:56:02.717Z,94315.16
2019-05-30T12:58:31.274Z,94303.66
2019-05-30T13:01:00.789Z,94306.81
2019-05-30T13:03:28.766Z,94310.93
2019-05-30T13:05:57.349Z,94314.00
2019-05-30T13:08:26.146Z,94311.73
2019-05-30T13:10:55.497Z,94310.87
2019-05-30T13:13:24.259Z,94311.11
2019-05-30T13:15:52.576Z,94317.38
2019-05-30T13:18:21.175Z,94318.14
2019-05-30T13:20:49.801Z,94310.65
2019-05-30T13:23:17.790Z,94310.30
2019-05-30T13:25:45.971Z,94299.72
2019-05-30T13:28:14.554Z,94296.36
2019-05-30T13:30:42.742Z,94300.31
2019-05-30T13:33:10.971Z,94304.38
2019-05-30T13:35:38.885Z,94300.17
2019-05-30T13:38:07.417Z,94311.78
2019-05-30T13:40:35.791Z,94317.23
2019-05-30T13:43:04.370Z,94312.72
2019-05-30T13:45:33.012Z,94315.55
2019-05-30T13:48:02.522Z,94317.75
2019-05-30T13:50:31.255Z,94322.47
2019-05-30T13:53:00.932Z,94319.78
2019-05-30T13:55:29.236Z,94319.50
2019-05-30T13:57:57.929Z,94318.34
2019-05-30T14:00:26.216Z,94317.18
2019-05-30T14:02:54.793Z,94314.63
2019-05-30T14:05:23.035Z,94304.75
2019-05-30T14:07:50.249Z,94302.86
2019-05-30T14:10:19.685Z,94300.37
2019-05-30T14:12:48.309Z,94294.94
2019-05-30T14:15:16.715Z,94293.27
2019-05-30T14:17:44.642Z,94294.34
2019-05-30T14:20:13.490Z,94289.48
2019-05-30T14:22:41.762Z,94302.72
2019-05-30T14:25:11.760Z,94294.36
2019-05-30T14:27:40.285Z,94296.81
2019-05-30T14:30:11.083Z,94298.14
2019-05-30T14:32:39.194Z,94294.06
2019-05-30T14:35:10.707Z,94300.56
2019-05-30T14:37:40.059Z,94303.69
2019-05-30T14:40:08.890Z,94301.69
2019-05-30T14:42:37.230Z,94300.61
2019-05-30T14:45:06.384Z,94304.93
2019-05-30T14:47:35.420Z,94305.54
2019-05-30T14:50:04.551Z,94313.25
2019-05-30T14:52:33.340Z,94314.70
2019-05-30T14:55:02.100Z,94317.30
2019-05-30T14:57:30.317Z,94312.64
2019-05-30T14:59:58.909Z,94308.66
2019-05-30T15:02:27.080Z,94314.55
2019-05-30T15:04:55.684Z,94323.19
2019-05-30T15:07:23.926Z,94321.15
2019-05-30T15:09:52.526Z,94311.17
2019-05-30T15:12:20.853Z,94317.24
2019-05-30T15:14:48.851Z,94315.95
2019-05-30T15:17:17.470Z,94309.55
2019-05-30T15:19:45.363Z,94320.66
2019-05-30T15:22:16.566Z,94317.54
2019-05-30T15:24:43.580Z,94323.29
2019-05-30T15:27:12.258Z,94329.25
2019-05-30T15:29:40.427Z,94323.48
2019-05-30T15:32:08.405Z,94331.58
2019-05-30T15:34:36.923Z,94332.00
2019-05-30T15:37:06.574Z,94329.53
2019-05-30T15:39:35.717Z,94332.14
2019-05-30T15:42:03.975Z,94339.07
2019-05-30T15:44:31.861Z,94336.72
2019-05-30T15:47:00.151Z,94337.10
2019-05-30T15:49:28.146Z,94324.48
2019-05-30T15:51:56.148Z,94331.67
2019-05-30T15:54:24.280Z,94335.75
2019-05-30T15:56:52.817Z,94331.55
2019-05-30T15:59:21.131Z,94338.89
2019-05-30T16:01:49.733Z,94331.55
2019-05-30T16:04:18.318Z,94325.70
2019-05-30T16:06:48.367Z,94333.41
2019-05-30T16:09:16.883Z,94339.00
2019-05-30T16:11:44.957Z,94334.22
2019-05-30T16:14:15.335Z,94337.44
2019-05-30T16:16:44.176Z,94335.02
2019-05-30T16:19:20.137Z,94336.61
2019-05-30T16:21:43.667Z,94335.34
2019-05-30T16:24:14.518Z,94343.81
2019-05-30T16:26:43.047Z,94343.81
2019-05-30T16:29:11.796Z,94344.81
2019-05-30T16:31:40.500Z,94342.28
2019-05-30T16:34:09.160Z,94343.14
2019-05-30T16:36:37.391Z,94340.40
2019-05-30T16:39:07.060Z,94340.19
2019-05-30T16:41:35.340Z,94341.75
2019-05-30T16:44:04.856Z,94344.10
2019-05-30T16:46:33.475Z,94340.07
2019-05-30T16:49:01.728Z,94335.36
2019-05-30T16:51:29.651Z,94331.02
2019-05-30T16:53:58.325Z,94338.01
2019-05-30T16:56:26.913Z,94341.91
2019-05-30T16:58:56.470Z,94339.47
2019-05-30T17:01:25.936Z,94336.75
2019-05-30T17:03:54.717Z,94338.27
2019-05-30T17:06:22.987Z,94340.17
2019-05-30T17:08:51.255Z,94339.95
2019-05-30T17:11:19.854Z,94345.44
2019-05-30T17:13:48.085Z,94343.77
2019-05-30T17:16:15.930Z,94348.05
2019-05-30T17:18:45.181Z,94346.36
2019-05-30T17:21:13.172Z,94344.44
2019-05-30T17:23:41.446Z,94343.17
2019-05-30T17:26:09.916Z,94345.89
2019-05-30T17:28:39.758Z,94351.30
2019-05-30T17:31:09.291Z,94350.20
2019-05-30T17:33:37.944Z,94357.59
2019-05-30T17:36:06.352Z,94356.39
2019-05-30T17:38:35.022Z,94362.14
2019-05-30T17:41:02.572Z,94357.80
2019-05-30T17:43:31.206Z,94362.73
2019-05-30T17:45:59.710Z,94362.04
2019-05-30T17:48:28.258Z,94362.32
2019-05-30T17:50:56.445Z,94365.50
2019-05-30T17:53:25.942Z,94366.99
2019-05-30T17:55:54.248Z,94368.10
2019-05-30T17:58:23.899Z,94368.64
2019-05-30T18:00:52.251Z,94370.45
2019-05-30T18:03:22.273Z,94368.92
2019-05-30T18:05:50.966Z,94367.77
2019-05-30T18:08:19.043Z,94366.14
2019-05-30T18:10:53.786Z,94373.20
2019-05-30T18:13:17.752Z,94371.16
2019-05-30T18:15:47.826Z,94367.34
2019-05-30T18:18:16.496Z,94377.30
2019-05-30T18:20:48.742Z,94376.14
2019-05-30T18:23:16.507Z,94375.03
2019-05-30T18:25:44.828Z,94379.91
2019-05-30T18:28:13.077Z,94378.80
2019-05-30T18:30:42.258Z,94376.89
2019-05-30T18:33:10.694Z,94376.62
2019-05-30T18:35:39.479Z,94384.55
2019-05-30T18:38:09.007Z,94380.48
2019-05-30T18:40:38.219Z,94378.94
2019-05-30T18:43:06.535Z,94384.82
2019-05-30T18:45:37.075Z,94385.00
2019-05-30T18:48:05.471Z,94381.41
2019-05-30T18:50:33.595Z,94382.42
2019-05-30T18:53:02.179Z,94384.70
2019-05-30T18:55:30.827Z,94382.17
2019-05-30T18:57:59.543Z,94381.00
2019-05-30T19:00:29.057Z,94385.46
2019-05-30T19:02:57.523Z,94389.08
2019-05-30T19:05:26.577Z,94383.66
2019-05-30T19:07:55.374Z,94388.55
2019-05-30T19:10:23.183Z,94392.95
2019-05-30T19:12:51.552Z,94396.99
2019-05-30T19:15:19.416Z,94397.69
2019-05-30T19:17:47.831Z,94396.27
2019-05-30T19:20:16.515Z,94406.83
2019-05-30T19:22:46.334Z,94410.11
2019-05-30T19:25:15.304Z,94404.80
2019-05-30T19:27:43.603Z,94411.04
2019-05-30T19:30:13.709Z,94412.45
2019-05-30T19:32:41.732Z,94418.63
2019-05-30T19:35:11.198Z,94421.90
2019-05-30T19:37:40.809Z,94422.97
2019-05-30T19:40:09.129Z,94426.16
2019-05-30T19:42:37.997Z,94423.80
2019-05-30T19:45:06.596Z,94433.44
2019-05-30T19:47:34.975Z,94434.07
2019-05-30T19:50:03.988Z,94435.89
2019-05-30T19:52:32.683Z,94440.78
2019-05-30T19:55:01.372Z,94445.17
2019-05-30T19:57:29.903Z,94449.98
2019-05-30T19:59:58.741Z,94444.10
2019-05-30T20:02:28.347Z,94449.30
2019-05-30T20:04:57.035Z,94451.48
2019-05-30T20:07:25.366Z,94455.47
2019-05-30T20:10:01.226Z,94458.08
2019-05-30T20:12:23.421Z,94451.70
2019-05-30T20:14:52.090Z,94456.48
2019-05-30T20:17:21.945Z,94458.64
2019-05-30T20:19:49.843Z,94458.71
2019-05-30T20:22:18.500Z,94462.61
2019-05-30T20:24:46.443Z,94467.34
2019-05-30T20:27:14.450Z,94463.20
2019-05-30T20:29:46.227Z,94464.73
2019-05-30T20:32:13.771Z,94464.55
2019-05-30T20:34:42.967Z,94458.38
2019-05-30T20:37:11.677Z,94461.26
2019-05-30T20:39:40.830Z,94456.38
2019-05-30T20:42:18.921Z,94459.72
2019-05-30T20:44:40.971Z,94459.23
2019-05-30T20:47:08.883Z,94457.44
2019-05-30T20:49:37.455Z,94455.62
2019-05-30T20:52:05.575Z,94462.42
2019-05-30T20:54:35.245Z,94463.67
2019-05-30T20:57:03.499Z,94464.43
2019-05-30T20:59:31.825Z,94466.09
2019-05-30T21:02:00.127Z,94469.97
2019-05-30T21:04:28.646Z,94471.68
2019-05-30T21:06:57.695Z,94479.49
2019-05-30T21:09:29.307Z,94473.16
2019-05-30T21:12:00.622Z,94472.77
2019-05-30T21:14:30.105Z,94477.82
2019-05-30T21:16:58.654Z,94469.97
2019-05-30T21:19:26.585Z,94471.07
2019-05-30T21:21:54.570Z,94467.47
2019-05-30T21:24:23.345Z,94467.92
2019-05-30T21:26:51.946Z,94472.74
2019-05-30T21:29:19.909Z,94470.34
2019-05-30T21:31:48.217Z,94474.91
2019-05-30T21:34:18.310Z,94470.34
2019-05-30T21:36:48.047Z,94474.41
2019-05-30T21:39:16.826Z,94481.64
2019-05-30T21:41:44.846Z,94475.13
2019-05-30T21:44:13.182Z,94474.48
2019-05-30T21:46:42.579Z,94474.69
2019-05-30T21:49:13.342Z,94477.03
2019-05-30T21:51:42.981Z,94478.77
2019-05-30T21:54:13.170Z,94473.89
2019-05-30T21:56:41.958Z,94477.27
2019-05-30T21:59:10.559Z,94485.34
2019-05-30T22:01:40.703Z,94479.52
2019-05-30T22:04:10.383Z,94477.56
2019-05-30T22:06:38.673Z,94482.14
2019-05-30T22:09:08.849Z,94478.80
2019-05-30T22:11:37.669Z,94475.46
2019-05-30T22:14:06.080Z,94481.91
2019-05-30T22:16:34.153Z,94480.48
2019-05-30T22:19:02.504Z,94485.84
2019-05-30T22:21:30.867Z,94485.67
2019-05-30T22:23:58.887Z,94484.13
2019-05-30T22:26:26.491Z,94481.27
2019-05-30T22:28:55.298Z,94481.83
2019-05-30T22:31:23.866Z,94479.09
2019-05-30T22:33:53.158Z,94479.30
2019-05-30T22:36:21.987Z,94473.23
2019-05-30T22:38:50.985Z,94473.72
2019-05-30T22:41:19.025Z,94467.84
2019-05-30T22:43:48.264Z,94475.29
2019-05-30T22:46:16.942Z,94468.02
2019-05-30T22:48:46.487Z,94475.87
2019-05-30T22:51:14.922Z,94474.48
2019-05-30T22:53:44.841Z,94471.35
2019-05-30T22:56:13.472Z,94474.91
2019-05-30T22:58:41.705Z,94471.59
2019-05-30T23:01:10.330Z,94471.62
2019-05-30T23:03:38.663Z,94475.59
2019-05-30T23:06:06.668Z,94479.52
2019-05-30T23:08:34.932Z,94474.57
2019-05-30T23:11:03.223Z,94478.63
2019-05-30T23:13:40.026Z,94475.36
2019-05-30T23:16:02.112Z,94474.13
2019-05-30T23:18:30.420Z,94473.33
2019-05-30T23:20:58.697Z,94468.63
2019-05-30T23:23:26.912Z,94472.84
2019-05-30T23:25:55.450Z,94468.25
2019-05-30T23:28:24.448Z,94471.85
2019-05-30T23:30:52.273Z,94466.90
2019-05-30T23:33:20.150Z,94465.67
2019-05-30T23:35:48.185Z,94466.16
2019-05-30T23:38:15.758Z,94462.36
2019-05-30T23:40:44.118Z,94465.70
2019-05-30T23:43:12.246Z,94462.64
2019-05-30T23:45:40.767Z,94458.03
2019-05-30T23:48:08.608Z,94454.35
2019-05-30T23:50:37.167Z,94458.08
2019-05-30T23:53:05.152Z,94452.51
2019-05-30T23:55:33.036Z,94457.41
2019-05-30T23:58:01.607Z,94452.08
